createdAt,value
2018-07-04T00:01:11.248Z,5.87
2018-07-04T00:03:51.312Z,4.58
2018-07-04T00:06:30.351Z,5.60
2018-07-04T00:09:09.376Z,6.12
2018-07-04T00:11:48.328Z,5.05
2018-07-04T00:14:27.222Z,6.97
2018-07-04T00:17:06.147Z,9.38
2018-07-04T00:19:45.321Z,8.25
2018-07-04T00:22:24.439Z,5.45
2018-07-04T00:25:03.471Z,7.00
2018-07-04T00:27:42.591Z,5.78
2018-07-04T00:30:21.679Z,8.28
2018-07-04T00:33:00.771Z,6.08
2018-07-04T00:35:39.761Z,6.10
2018-07-04T00:38:18.745Z,6.97
2018-07-04T00:40:57.638Z,7.12
2018-07-04T00:43:36.555Z,3.62
2018-07-04T00:46:15.485Z,9.08
2018-07-04T00:48:54.550Z,5.60
2018-07-04T00:51:33.475Z,5.60
2018-07-04T00:54:13.412Z,6.47
2018-07-04T00:56:52.593Z,4.85
2018-07-04T00:59:31.563Z,6.55
2018-07-04T01:02:10.464Z,6.20
2018-07-04T01:04:49.412Z,4.97
2018-07-04T01:07:29.507Z,4.10
2018-07-04T01:10:08.542Z,6.65
2018-07-04T01:12:48.526Z,4.40
2018-07-04T01:15:28.536Z,5.12
2018-07-04T01:18:07.602Z,6.70
2018-07-04T01:24:07.967Z,6.22
2018-07-04T01:26:47.045Z,9.15
2018-07-04T01:29:26.111Z,6.30
2018-07-04T01:32:05.408Z,5.47
2018-07-04T01:34:44.545Z,7.10
2018-07-04T01:37:23.625Z,7.87
2018-07-04T01:40:02.641Z,5.72
2018-07-04T01:42:41.572Z,6.10
2018-07-04T01:45:20.636Z,10.10
2018-07-04T01:48:00.721Z,7.62
2018-07-04T01:50:39.801Z,8.63
2018-07-04T01:53:18.796Z,7.67
2018-07-04T01:55:57.822Z,8.05
2018-07-04T01:58:36.799Z,6.85
2018-07-04T02:01:15.913Z,8.35
2018-07-04T02:03:55.025Z,9.45
2018-07-04T02:06:34.075Z,8.68
2018-07-04T02:09:13.071Z,5.65
2018-07-04T02:11:53.148Z,6.92
2018-07-04T02:14:32.156Z,5.97
2018-07-04T02:17:11.248Z,7.30
2018-07-04T02:19:50.357Z,8.75
2018-07-04T02:25:09.987Z,5.67
2018-07-04T02:27:48.986Z,7.30
2018-07-04T02:30:27.972Z,7.62
2018-07-04T02:33:07.077Z,8.55
2018-07-04T02:35:46.025Z,7.50
2018-07-04T02:38:25.068Z,7.70
2018-07-04T02:41:03.981Z,7.58
2018-07-04T02:44:07.502Z,8.80
2018-07-04T02:46:46.710Z,8.13
2018-07-04T02:49:25.872Z,7.33
2018-07-04T02:52:04.980Z,8.40
2018-07-04T02:54:44.130Z,8.53
2018-07-04T02:57:23.251Z,8.83
2018-07-04T03:00:02.293Z,8.15
2018-07-04T03:02:41.695Z,9.30
2018-07-04T03:05:20.833Z,8.40
2018-07-04T03:07:59.964Z,13.53
2018-07-04T03:10:39.098Z,8.78
2018-07-04T03:13:18.239Z,11.40
2018-07-04T03:15:57.458Z,10.32
2018-07-04T03:18:36.580Z,13.15
2018-07-04T03:21:15.717Z,13.22
2018-07-04T03:23:54.839Z,10.43
2018-07-04T03:26:34.071Z,14.68
2018-07-04T03:29:13.220Z,10.18
2018-07-04T03:31:52.470Z,11.30
2018-07-04T03:34:31.587Z,11.93
2018-07-04T03:37:10.815Z,14.73
2018-07-04T03:39:50.068Z,14.43
2018-07-04T03:42:29.204Z,12.10
2018-07-04T03:47:48.413Z,12.75
2018-07-04T03:50:27.520Z,17.73
2018-07-04T03:53:10.824Z,18.35
2018-07-04T03:55:49.791Z,12.47
2018-07-04T03:58:28.822Z,13.85
2018-07-04T04:01:07.922Z,12.03
2018-07-04T04:03:46.874Z,9.33
2018-07-04T04:06:26.999Z,10.75
2018-07-04T04:09:23.005Z,13.75
2018-07-04T04:12:02.412Z,9.13
2018-07-04T04:14:41.418Z,12.70
2018-07-04T04:17:20.496Z,9.90
2018-07-04T04:19:59.370Z,14.53
2018-07-04T04:22:38.428Z,15.45
2018-07-04T04:25:17.514Z,12.18
2018-07-04T04:28:04.147Z,10.60
2018-07-04T04:30:44.241Z,11.20
2018-07-04T04:33:23.159Z,9.68
2018-07-04T04:36:02.165Z,17.65
2018-07-04T04:38:41.081Z,9.48
2018-07-04T04:41:20.137Z,7.80
2018-07-04T04:43:59.217Z,12.00
2018-07-04T04:46:39.375Z,12.07
2018-07-04T04:49:18.471Z,7.65
2018-07-04T04:52:25.530Z,10.90
2018-07-04T04:55:04.629Z,9.68
2018-07-04T04:57:43.623Z,10.30
2018-07-04T05:00:22.515Z,8.63
2018-07-04T05:03:02.632Z,7.17
2018-07-04T05:05:41.726Z,6.60
2018-07-04T05:08:20.763Z,7.58
2018-07-04T05:10:59.693Z,10.60
2018-07-04T05:13:38.584Z,6.60
2018-07-04T05:16:17.696Z,6.97
2018-07-04T05:18:56.628Z,8.38
2018-07-04T05:21:35.707Z,19.98
2018-07-04T05:24:14.849Z,8.23
2018-07-04T05:27:01.660Z,7.08
2018-07-04T05:29:42.413Z,6.33
2018-07-04T05:32:21.362Z,24.32
2018-07-04T05:35:16.234Z,15.63
2018-07-04T05:37:55.196Z,10.18
2018-07-04T05:40:34.145Z,5.70
2018-07-04T05:43:17.008Z,9.38
2018-07-04T05:45:56.237Z,9.25
2018-07-04T05:48:35.338Z,7.95
2018-07-04T05:51:14.416Z,8.38
2018-07-04T05:53:53.574Z,7.72
2018-07-04T05:56:32.703Z,7.28
2018-07-04T05:59:11.829Z,9.20
2018-07-04T06:01:50.944Z,7.83
2018-07-04T06:04:31.145Z,10.32
2018-07-04T06:07:18.443Z,8.00
2018-07-04T06:09:57.387Z,7.70
2018-07-04T06:12:36.521Z,10.53
2018-07-04T06:15:15.478Z,7.83
2018-07-04T06:17:54.777Z,12.65
2018-07-04T06:20:33.741Z,13.75
2018-07-04T06:23:13.086Z,8.58
2018-07-04T06:25:52.208Z,14.30
2018-07-04T06:28:31.241Z,14.35
2018-07-04T06:31:10.543Z,11.93
2018-07-04T06:33:50.182Z,9.20
2018-07-04T06:36:29.334Z,11.78
2018-07-04T06:38:56.030Z,13.80
2018-07-04T06:41:22.831Z,12.93
2018-07-04T06:43:49.603Z,12.90
2018-07-04T06:49:03.012Z,14.75
2018-07-04T06:51:29.710Z,13.50
2018-07-04T06:53:56.387Z,11.22
2018-07-04T06:56:23.093Z,9.20
2018-07-04T06:58:49.816Z,13.18
2018-07-04T07:01:16.540Z,10.85
2018-07-04T07:03:56.657Z,9.50
2018-07-04T07:06:35.585Z,13.75
2018-07-04T07:09:14.716Z,8.85
2018-07-04T07:11:53.736Z,12.58
2018-07-04T07:14:32.744Z,8.63
2018-07-04T07:17:37.908Z,10.03
2018-07-04T07:20:16.994Z,11.48
2018-07-04T07:22:57.856Z,16.23
2018-07-04T07:25:37.907Z,14.75
2018-07-04T07:28:16.782Z,17.40
2018-07-04T07:30:55.966Z,10.98
2018-07-04T07:33:34.902Z,14.05
2018-07-04T07:36:14.026Z,18.02
2018-07-04T07:38:52.929Z,17.77
2018-07-04T07:41:32.048Z,13.88
2018-07-04T07:46:58.756Z,14.13
2018-07-04T07:49:37.764Z,14.98
2018-07-04T07:52:16.884Z,14.45
2018-07-04T07:54:55.775Z,16.05
2018-07-04T07:57:34.771Z,14.30
2018-07-04T08:00:13.709Z,15.38
2018-07-04T08:02:52.650Z,13.03
2018-07-04T08:05:31.612Z,16.67
2018-07-04T08:08:10.671Z,11.00
2018-07-04T08:10:49.660Z,8.98
2018-07-04T08:13:28.894Z,13.83
2018-07-04T08:16:11.408Z,12.25
2018-07-04T08:18:50.552Z,9.03
2018-07-04T08:21:29.519Z,11.93
2018-07-04T08:24:08.670Z,11.50
2018-07-04T08:26:47.670Z,11.53
2018-07-04T08:29:26.942Z,11.22
2018-07-04T08:32:06.162Z,10.05
2018-07-04T08:34:45.300Z,9.70
2018-07-04T08:37:24.495Z,7.42
2018-07-04T08:40:03.561Z,8.20
2018-07-04T08:42:42.672Z,12.45
2018-07-04T08:45:21.866Z,10.45
2018-07-04T08:48:01.009Z,7.70
2018-07-04T08:50:40.260Z,8.23
2018-07-04T08:53:19.313Z,8.28
2018-07-04T08:55:58.449Z,7.17
2018-07-04T08:58:38.601Z,10.45
2018-07-04T09:01:17.715Z,10.90
2018-07-04T09:03:56.840Z,10.30
2018-07-04T09:06:36.159Z,13.83
2018-07-04T09:09:15.299Z,11.10
2018-07-04T09:11:54.624Z,11.12
2018-07-04T09:14:33.765Z,8.85
2018-07-04T09:17:18.073Z,10.25
2018-07-04T09:19:57.121Z,12.58
2018-07-04T09:22:36.082Z,10.13
2018-07-04T09:25:15.146Z,8.98
2018-07-04T09:27:54.060Z,7.60
2018-07-04T09:30:33.090Z,8.93
2018-07-04T09:33:12.205Z,11.08
2018-07-04T09:35:51.151Z,10.25
2018-07-04T09:38:30.209Z,10.58
2018-07-04T09:41:13.010Z,9.55
2018-07-04T09:43:52.156Z,10.00
2018-07-04T09:46:31.282Z,9.03
2018-07-04T09:49:11.394Z,12.20
2018-07-04T09:51:50.419Z,12.07
2018-07-04T09:54:29.371Z,16.48
2018-07-04T09:57:08.334Z,10.98
2018-07-04T09:59:47.354Z,11.88
2018-07-04T10:02:26.470Z,9.90
2018-07-04T10:05:05.590Z,11.33
2018-07-04T10:07:45.654Z,12.07
2018-07-04T10:10:24.803Z,11.12
2018-07-04T10:13:03.824Z,11.57
2018-07-04T10:15:43.992Z,10.93
2018-07-04T10:18:23.264Z,10.20
2018-07-04T10:21:03.275Z,11.12
2018-07-04T10:23:42.364Z,15.50
2018-07-04T10:26:21.439Z,11.53
2018-07-04T10:29:00.374Z,10.13
2018-07-04T10:31:39.415Z,14.40
2018-07-04T10:34:18.351Z,11.10
2018-07-04T10:36:57.428Z,11.05
2018-07-04T10:39:36.483Z,15.65
2018-07-04T10:42:15.403Z,10.35
2018-07-04T10:44:54.450Z,11.70
2018-07-04T10:47:33.512Z,12.03
2018-07-04T10:50:12.804Z,9.48
2018-07-04T10:52:51.781Z,11.25
2018-07-04T10:55:48.393Z,10.10
2018-07-04T10:58:27.603Z,12.43
2018-07-04T11:01:06.566Z,10.68
2018-07-04T11:03:47.740Z,10.53
2018-07-04T11:06:26.679Z,13.58
2018-07-04T11:09:05.785Z,12.03
2018-07-04T11:11:44.709Z,11.65
2018-07-04T11:14:23.874Z,10.80
2018-07-04T11:17:04.060Z,12.23
2018-07-04T11:19:43.062Z,16.25
2018-07-04T11:22:22.160Z,12.43
2018-07-04T11:25:01.164Z,17.87
2018-07-04T11:27:40.073Z,14.55
2018-07-04T11:30:21.380Z,13.22
2018-07-04T11:33:00.688Z,11.25
2018-07-04T11:35:39.603Z,12.78
2018-07-04T11:38:18.738Z,10.78
2018-07-04T11:40:57.901Z,12.35
2018-07-04T11:43:36.973Z,15.85
2018-07-04T11:46:03.751Z,13.62
2018-07-04T11:48:30.484Z,15.48
2018-07-04T11:53:24.279Z,16.65
2018-07-04T11:55:52.012Z,11.63
2018-07-04T11:58:18.709Z,13.45
2018-07-04T12:00:45.481Z,17.40
2018-07-04T12:03:20.276Z,10.63
2018-07-04T12:05:59.193Z,11.30
2018-07-04T12:08:25.981Z,15.48
2018-07-04T12:10:53.087Z,11.08
2018-07-04T12:13:20.864Z,10.82
2018-07-04T12:15:48.596Z,17.48
2018-07-04T12:18:15.338Z,13.93
2018-07-04T12:21:06.322Z,10.95
2018-07-04T12:23:33.367Z,16.67
2018-07-04T12:26:00.267Z,12.60
2018-07-04T12:28:27.924Z,11.73
2018-07-04T12:30:54.723Z,10.75
2018-07-04T12:33:21.393Z,14.95
2018-07-04T12:35:48.094Z,8.53
2018-07-04T12:38:14.772Z,11.57
2018-07-04T12:40:41.437Z,12.10
2018-07-04T12:43:08.112Z,12.63
2018-07-04T12:45:39.487Z,13.38
2018-07-04T12:48:01.746Z,9.78
2018-07-04T12:50:30.405Z,9.20
2018-07-04T12:52:57.082Z,9.50
2018-07-04T12:55:38.452Z,8.28
2018-07-04T12:58:18.446Z,9.98
2018-07-04T13:00:57.370Z,14.98
2018-07-04T13:03:36.278Z,10.80
2018-07-04T13:06:15.262Z,11.50
2018-07-04T13:08:54.343Z,12.13
2018-07-04T13:11:33.345Z,9.25
2018-07-04T13:14:12.360Z,11.43
2018-07-04T13:16:51.547Z,10.68
2018-07-04T13:19:30.544Z,11.00
2018-07-04T13:22:09.543Z,11.65
2018-07-04T13:24:48.668Z,11.33
2018-07-04T13:27:27.871Z,10.98
2018-07-04T13:30:07.841Z,11.00
2018-07-04T13:32:46.884Z,7.15
2018-07-04T13:35:25.915Z,10.82
2018-07-04T13:38:04.957Z,12.07
2018-07-04T13:40:44.077Z,7.97
2018-07-04T13:43:23.145Z,6.85
2018-07-04T13:46:02.415Z,10.30
2018-07-04T13:48:41.528Z,7.37
2018-07-04T13:51:20.887Z,9.00
2018-07-04T13:53:59.955Z,11.30
2018-07-04T13:56:38.849Z,8.75
2018-07-04T13:59:17.900Z,7.53
2018-07-04T14:01:57.027Z,9.23
2018-07-04T14:04:36.137Z,8.65
2018-07-04T14:07:19.149Z,11.68
2018-07-04T14:09:58.333Z,9.40
2018-07-04T14:12:37.482Z,10.00
2018-07-04T14:15:16.496Z,7.33
2018-07-04T14:17:55.687Z,5.80
2018-07-04T14:20:34.903Z,11.75
2018-07-04T14:23:14.189Z,7.72
2018-07-04T14:25:53.228Z,8.00
2018-07-04T14:28:33.310Z,7.03
2018-07-04T14:31:12.452Z,10.40
2018-07-04T14:33:51.577Z,10.43
2018-07-04T14:36:30.732Z,11.35
2018-07-04T14:39:09.851Z,12.60
2018-07-04T14:41:49.069Z,8.55
2018-07-04T14:44:29.113Z,15.00
2018-07-04T14:47:25.108Z,10.63
2018-07-04T14:50:04.178Z,14.05
2018-07-04T14:52:43.342Z,9.35
2018-07-04T14:55:22.771Z,9.93
2018-07-04T14:58:16.886Z,7.65
2018-07-04T15:01:05.020Z,8.73
2018-07-04T15:03:44.226Z,9.30
2018-07-04T15:06:23.341Z,12.23
2018-07-04T15:09:02.477Z,13.08
2018-07-04T15:11:41.579Z,8.10
2018-07-04T15:14:20.803Z,13.55
2018-07-04T15:16:59.905Z,4.92
2018-07-04T15:19:39.003Z,6.83
2018-07-04T15:22:18.182Z,11.10
2018-07-04T15:24:57.997Z,10.08
2018-07-04T15:27:36.990Z,6.90
2018-07-04T15:30:16.141Z,6.33
2018-07-04T15:32:55.295Z,8.08
2018-07-04T15:35:34.286Z,8.40
2018-07-04T15:38:13.459Z,8.05
2018-07-04T15:40:52.557Z,5.85
2018-07-04T15:43:31.676Z,6.17
2018-07-04T15:46:10.870Z,5.05
2018-07-04T15:48:50.168Z,5.35
2018-07-04T15:51:29.269Z,6.70
2018-07-04T15:54:08.491Z,4.37
2018-07-04T15:56:47.490Z,7.80
2018-07-04T15:59:26.728Z,4.30
2018-07-04T16:02:05.803Z,3.50
2018-07-04T16:04:44.952Z,4.58
2018-07-04T16:07:24.057Z,4.53
2018-07-04T16:10:03.173Z,7.58
2018-07-04T16:12:42.115Z,3.42
2018-07-04T16:15:21.248Z,3.75
2018-07-04T16:18:00.284Z,9.38
2018-07-04T16:20:39.223Z,4.05
2018-07-04T16:23:18.282Z,6.05
2018-07-04T16:25:57.205Z,4.57
2018-07-04T16:28:36.132Z,3.92
2018-07-04T16:31:15.044Z,2.52
2018-07-04T16:33:54.975Z,6.08
2018-07-04T16:36:33.901Z,3.95
2018-07-04T16:39:12.845Z,1.72
2018-07-04T16:41:51.769Z,2.72
2018-07-04T16:44:30.782Z,2.50
2018-07-04T16:47:09.766Z,1.45
2018-07-04T16:49:48.787Z,3.87
2018-07-04T16:52:27.705Z,0.60
2018-07-04T16:55:06.841Z,4.62
2018-07-04T16:57:46.013Z,4.22
2018-07-04T17:00:25.095Z,2.60
2018-07-04T17:03:04.355Z,2.17
2018-07-04T17:05:43.388Z,3.90
2018-07-04T17:08:22.792Z,2.20
2018-07-04T17:11:02.899Z,3.35
2018-07-04T17:13:41.973Z,3.50
2018-07-04T17:16:21.097Z,4.42
2018-07-04T17:19:36.202Z,1.42
2018-07-04T17:22:15.192Z,1.15
2018-07-04T17:24:54.324Z,2.20
2018-07-04T17:27:33.850Z,1.22
2018-07-04T17:30:14.117Z,4.00
2018-07-04T17:32:53.217Z,1.85
2018-07-04T17:35:33.268Z,2.47
2018-07-04T17:38:12.651Z,3.37
2018-07-04T17:41:07.073Z,3.45
2018-07-04T17:43:46.195Z,5.80
2018-07-04T17:46:25.144Z,3.52
2018-07-04T17:49:04.222Z,3.90
2018-07-04T17:51:43.373Z,4.92
2018-07-04T17:54:22.421Z,1.67
2018-07-04T17:57:02.520Z,2.90
2018-07-04T17:59:41.558Z,3.35
2018-07-04T18:02:35.503Z,2.02
2018-07-04T18:05:15.643Z,2.25
2018-07-04T18:08:16.944Z,1.35
2018-07-04T18:10:56.947Z,7.30
2018-07-04T18:13:35.989Z,2.67
2018-07-04T18:16:15.117Z,1.45
2018-07-04T18:18:54.064Z,1.75
2018-07-04T18:21:33.062Z,0.95
2018-07-04T18:24:12.100Z,2.75
2018-07-04T18:26:51.300Z,1.95
2018-07-04T18:29:30.381Z,3.20
2018-07-04T18:32:09.443Z,2.95
2018-07-04T18:34:48.636Z,2.17
2018-07-04T18:37:27.742Z,1.90
2018-07-04T18:40:06.863Z,1.70
2018-07-04T18:42:45.958Z,3.67
2018-07-04T18:45:24.898Z,2.47
2018-07-04T18:48:03.934Z,6.03
2018-07-04T18:50:45.844Z,1.77
2018-07-04T18:53:25.814Z,3.37
2018-07-04T18:56:04.803Z,3.00
2018-07-04T18:58:43.886Z,2.42
2018-07-04T19:01:22.999Z,1.82
2018-07-04T19:04:02.093Z,1.85
2018-07-04T19:06:41.201Z,3.10
2018-07-04T19:09:20.175Z,0.65
2018-07-04T19:12:22.187Z,2.92
2018-07-04T19:15:01.183Z,2.95
2018-07-04T19:17:40.080Z,1.17
2018-07-04T19:20:19.136Z,4.00
2018-07-04T19:22:59.129Z,0.68
2018-07-04T19:25:38.099Z,0.42
2018-07-04T19:28:17.184Z,2.08
2018-07-04T19:30:56.281Z,1.10
2018-07-04T19:33:35.221Z,1.55
2018-07-04T19:36:14.283Z,0.60
2018-07-04T19:38:53.328Z,0.98
2018-07-04T19:41:32.250Z,3.17
2018-07-04T19:44:11.280Z,1.00
2018-07-04T19:46:50.347Z,2.42
2018-07-04T19:52:57.211Z,2.87
2018-07-04T19:55:42.175Z,1.75
2018-07-04T19:58:25.481Z,2.17
2018-07-04T20:01:09.930Z,3.65
2018-07-04T20:04:03.763Z,3.27
2018-07-04T20:06:43.078Z,1.67
2018-07-04T20:09:22.263Z,0.93
2018-07-04T20:12:01.385Z,1.10
2018-07-04T20:14:40.367Z,1.35
2018-07-04T20:17:19.603Z,3.50
2018-07-04T20:19:58.651Z,2.92
2018-07-04T20:22:37.794Z,3.87
2018-07-04T20:25:16.815Z,1.87
2018-07-04T20:27:56.054Z,1.65
2018-07-04T20:30:35.183Z,1.35
2018-07-04T20:33:14.409Z,1.65
2018-07-04T20:35:53.554Z,1.80
2018-07-04T20:38:32.670Z,1.75
2018-07-04T20:41:11.729Z,2.55
2018-07-04T20:43:50.825Z,1.25
2018-07-04T20:46:30.153Z,2.42
2018-07-04T20:49:09.488Z,1.70
2018-07-04T20:51:48.637Z,4.20
2018-07-04T20:54:27.601Z,3.08
2018-07-04T20:57:06.726Z,3.60
2018-07-04T20:59:45.707Z,4.20
2018-07-04T21:02:24.633Z,2.80
2018-07-04T21:05:03.782Z,1.60
2018-07-04T21:07:42.853Z,2.37
2018-07-04T21:10:22.024Z,3.15
2018-07-04T21:13:01.086Z,3.77
2018-07-04T21:15:40.218Z,4.00
2018-07-04T21:18:19.355Z,3.90
2018-07-04T21:20:58.601Z,2.05
2018-07-04T21:23:37.705Z,1.17
2018-07-04T21:26:16.945Z,5.53
2018-07-04T21:28:56.085Z,2.37
2018-07-04T21:31:35.300Z,3.40
2018-07-04T21:34:14.443Z,1.90
2018-07-04T21:36:53.522Z,2.65
2018-07-04T21:39:32.665Z,2.25
2018-07-04T21:42:11.716Z,1.52
2018-07-04T21:44:50.823Z,1.60
2018-07-04T21:47:30.104Z,2.75
2018-07-04T21:50:09.262Z,4.08
2018-07-04T21:52:48.539Z,4.50
2018-07-04T21:55:27.567Z,3.72
2018-07-04T21:58:06.762Z,4.05
2018-07-04T22:00:45.832Z,1.57
2018-07-04T22:03:25.088Z,4.53
2018-07-04T22:06:04.185Z,4.45
2018-07-04T22:08:43.333Z,2.75
2018-07-04T22:11:22.243Z,3.00
2018-07-04T22:14:01.194Z,5.42
2018-07-04T22:16:40.150Z,2.70
2018-07-04T22:19:19.100Z,5.25
2018-07-04T22:21:58.205Z,3.08
2018-07-04T22:24:37.122Z,9.28
2018-07-04T22:27:16.161Z,4.37
2018-07-04T22:29:55.103Z,4.17
2018-07-04T22:32:34.200Z,7.12
2018-07-04T22:35:28.787Z,2.92
2018-07-04T22:38:11.319Z,3.58
2018-07-04T22:40:51.314Z,6.62
2018-07-04T22:43:30.304Z,3.92
2018-07-04T22:46:09.183Z,7.62
2018-07-04T22:48:48.144Z,5.53
2018-07-04T22:51:27.220Z,5.17
2018-07-04T22:54:06.139Z,4.60
2018-07-04T22:56:45.211Z,4.33
2018-07-04T22:59:24.190Z,7.00
2018-07-04T23:02:04.129Z,4.12
2018-07-04T23:04:43.175Z,5.15
2018-07-04T23:07:22.155Z,5.80
2018-07-04T23:10:01.182Z,3.80
2018-07-04T23:12:41.378Z,3.77
2018-07-04T23:15:20.316Z,5.70
2018-07-04T23:17:59.353Z,5.05
2018-07-04T23:20:38.241Z,8.83
2018-07-04T23:23:18.144Z,8.53
2018-07-04T23:25:57.130Z,6.78
2018-07-04T23:28:36.083Z,6.92
2018-07-04T23:31:14.953Z,5.08
2018-07-04T23:33:54.118Z,5.92
2018-07-04T23:36:33.216Z,5.53
2018-07-04T23:39:12.140Z,5.37
2018-07-04T23:41:51.217Z,10.63
2018-07-04T23:46:56.260Z,6.05
2018-07-04T23:49:35.320Z,7.60
2018-07-04T23:52:14.278Z,4.75
2018-07-04T23:54:53.439Z,5.25
2018-07-04T23:57:32.506Z,6.97
